09:37
Airports
History
Links
Donate
Help keep this website running!
PayPal
Bitcoin
This page is community maintained. The information is intended for PC simulator navigation or reference.
Always use approved charts for navigation.
EDHI
Hamburg Finkenwerder
Hamburg Finkenwerder (EDHI)
Hamburg, Hamburg, Germany (21129)
(C)
Lat/Lng:53° 32' 9.28" N / 9° 50' 13.46" E
53.53591 / 9.837071
Elevation:21'ft / 6mMSL
ID / ICAO:EDHI
Runways:1
Longest:05-23
Asphalt 2,623m / 8,606ft
Controlled:Yes
METAR09:20 GMT 2018-02-20
Altimeter: 30.12
Visibility: 4.3 statute miles
Wind: 3 knots (from 090°)
Temp: 2°c / 36°f
Humidity: 80.5%

METAR: EDHI 200920Z 09003KT 050V140 7000 NSC 02/M01 Q1020

(Powered by phpweather)
Airport Radio Frequencies
ATIS: 123.12
Tower: 121.27, 123.25, 125.1
Approach: 124.22, 134.25
Nearby VORs <50NM
Nearby NDBs
Runway 05 / 23
Dimensions:2623.2 x 45.1m 8606' x 148'ft
Surface:Asphalt
Edge Lights:Medium intensity
Runway 05 [A]Runway 23 [B]
Heading:051°TH 231°TH
Lat:
Lng:
53° 31' 42.83"N
9° 49' 17.35"E
53° 32' 35.72"N
9° 51' 9.56"E
TDZ:Yes, lighted
User Notes and Comments
53° 32' 9.28" N / 9° 50' 13.46" E
Distance To
Airport ID:
Nearby Airports
(C) Hamburg 9.2 NM
EDDH ( WX ) NE 40°
(C) Uetersen 9.4 NM
EDHE NW 324°
(C) Ahrenlohe 12.1 NM
EDHO NNW 341°
(U) Stade 14.0 NM
EDHS W 276°
(C) Lauenbrueck 25.1 NM
EDHU SSW 205°
(U) Hartenholm 27.5 NM
EDHM NNE 17°
(C) Seedorf 27.5 NM
EDXS WSW 239°
VFR Chart
Flight Planning at SkyVector.com